Greenville, Georgia
Current Conditions -  °F | °C
As of 9:55 AM on Saturday 20 Dec 2014 (Local Time) from KCCO Reporting Station
Haze Haze  
Wind Chill: 43°   Ceiling: 300
Heat Index: 45°   Visibility: 5mi
Dew Point: 45°   Wind: 5mph
Humidity: 100%   Direction: 40°NE
Pressure: 30.2"   Gusts: NA
Location:  33.03°N, 84.71°W
Report Text: KCCO 201455Z AUTO 04004KT 5SM BR BKN003 OVC038 07/07 A3020 RMK AO2 T00740074
Loading
Personal Weather Stations






























Interactive Weather Map New forecast layout! Learn more

10-Day Weather Forecast

Advertisements
Track Severe Weather on mobile